Time;durP1;ratioP1;P1;durP2;ratioP2;P2;SDS_P1;SDS_P2;PMS_P1;PMS_P2;Temp;Humidity;BMP_temperature;BMP_pressure;BME280_temperature;BME280_humidity;BME280_pressure;Samples;Min_cycle;Max_cycle;Signal;HPM_P1;HPM_P2
2023/07/23 00:01:28;;;;;;;68.83;4.93;;;21.50;1.00;;;;;;5096160;28;20186;-78
2023/07/23 00:03:53;;;;;;;69.20;5.10;;;21.50;1.00;;;;;;5114654;28;20166;-77
2023/07/23 00:06:19;;;;;;;68.60;5.10;;;21.40;1.00;;;;;;5114035;28;20185;-77
2023/07/23 00:08:45;;;;;;;69.50;5.07;;;21.30;1.00;;;;;;5114137;28;20208;-77
2023/07/23 00:11:10;;;;;;;71.73;5.67;;;21.20;1.00;;;;;;5114477;28;20162;-77
2023/07/23 00:13:36;;;;;;;72.37;5.50;;;21.10;1.00;;;;;;5096015;28;20166;-78
2023/07/23 00:16:02;;;;;;;70.97;5.43;;;21.20;1.00;;;;;;5095902;28;20163;-78
2023/07/23 00:18:28;;;;;;;69.97;5.47;;;21.10;1.00;;;;;;5114717;28;20182;-78
2023/07/23 00:20:53;;;;;;;70.03;5.03;;;21.00;1.00;;;;;;5114502;28;20802;-78
2023/07/23 00:23:19;;;;;;;71.20;5.60;;;21.00;1.00;;;;;;5114612;28;20170;-78
2023/07/23 00:25:45;;;;;;;69.30;4.97;;;21.00;1.00;;;;;;5114491;28;20215;-78
2023/07/23 00:28:10;;;;;;;73.90;5.30;;;21.10;1.00;;;;;;5114387;28;20191;-78
2023/07/23 00:30:36;;;;;;;71.37;5.27;;;21.10;1.00;;;;;;5114543;28;20630;-78
2023/07/23 00:33:01;;;;;;;68.80;5.00;;;21.10;1.00;;;;;;5114167;28;20159;-78
2023/07/23 00:35:27;;;;;;;69.33;5.20;;;21.10;1.00;;;;;;5114390;28;20241;-78
2023/07/23 00:37:53;;;;;;;70.97;4.90;;;21.00;1.00;;;;;;5114249;28;20231;-78
2023/07/23 00:40:18;;;;;;;69.30;5.00;;;21.10;1.00;;;;;;5114350;28;20159;-78
2023/07/23 00:42:44;;;;;;;70.50;5.50;;;21.00;1.00;;;;;;5114305;28;20219;-78
2023/07/23 00:45:10;;;;;;;70.03;4.97;;;20.90;1.00;;;;;;5095739;28;20178;-78
2023/07/23 00:47:36;;;;;;;69.60;5.17;;;21.00;1.00;;;;;;5114174;28;20182;-78
2023/07/23 00:50:02;;;;;;;73.20;5.30;;;21.00;1.00;;;;;;5113894;28;20257;-78
2023/07/23 00:52:28;;;;;;;69.80;5.20;;;21.00;1.00;;;;;;5114172;28;20806;-78
2023/07/23 00:54:55;;;;;;;69.47;5.33;;;20.80;1.00;;;;;;5113920;28;20401;-78
2023/07/23 00:57:20;;;;;;;71.27;5.53;;;20.80;1.00;;;;;;5114499;28;20530;-78
2023/07/23 00:59:46;;;;;;;70.37;6.20;;;20.60;1.00;;;;;;5114376;28;20420;-78
2023/07/23 01:02:12;;;;;;;70.10;5.73;;;20.70;1.00;;;;;;5096329;28;20170;-78
2023/07/23 01:04:37;;;;;;;72.20;6.73;;;20.60;1.00;;;;;;5114339;28;20276;-78
2023/07/23 01:07:06;;;;;;;68.67;5.70;;;20.50;1.00;;;;;;5114110;28;20251;-78
2023/07/23 01:09:33;;;;;;;69.20;5.57;;;20.60;1.00;;;;;;5096254;28;20218;-78
2023/07/23 01:11:59;;;;;;;70.87;6.90;;;20.60;1.00;;;;;;5114794;28;20950;-78
2023/07/23 01:14:25;;;;;;;71.70;5.87;;;20.60;1.00;;;;;;5114667;28;20440;-78
2023/07/23 01:16:51;;;;;;;70.17;5.87;;;20.60;1.00;;;;;;5114442;28;20174;-78
2023/07/23 01:19:17;;;;;;;69.13;5.57;;;20.60;1.00;;;;;;5114546;28;20247;-78
2023/07/23 01:21:43;;;;;;;70.83;6.10;;;20.50;1.00;;;;;;5114486;28;20402;-78
2023/07/23 01:24:09;;;;;;;73.30;5.97;;;20.60;1.00;;;;;;5114447;28;20414;-78
2023/07/23 01:26:34;;;;;;;69.37;5.60;;;20.60;1.00;;;;;;5114299;28;20193;-78
2023/07/23 01:29:00;;;;;;;68.97;5.40;;;20.60;1.00;;;;;;5114541;28;20183;-78
2023/07/23 01:31:26;;;;;;;71.13;6.80;;;20.50;1.00;;;;;;5114310;28;20194;-78
2023/07/23 01:33:52;;;;;;;69.80;6.00;;;20.50;1.00;;;;;;5114366;28;20176;-78
2023/07/23 01:36:19;;;;;;;69.67;5.97;;;20.50;1.00;;;;;;5095699;28;20193;-78
2023/07/23 01:38:44;;;;;;;70.47;5.27;;;20.40;1.00;;;;;;5114717;28;20438;-78
2023/07/23 01:41:10;;;;;;;69.87;5.40;;;20.50;1.00;;;;;;5114357;28;20398;-78
2023/07/23 01:43:37;;;;;;;72.07;7.33;;;20.40;1.00;;;;;;5117949;28;20159;-78
2023/07/23 01:46:02;;;;;;;68.47;5.13;;;20.50;1.00;;;;;;5117891;28;20474;-78
2023/07/23 01:48:28;;;;;;;69.57;6.03;;;20.50;1.00;;;;;;5117844;28;20837;-78
2023/07/23 01:50:54;;;;;;;72.50;6.57;;;20.50;1.00;;;;;;5117842;28;20177;-78
2023/07/23 01:53:19;;;;;;;70.20;6.10;;;20.40;1.00;;;;;;5117558;28;20591;-78
2023/07/23 01:55:45;;;;;;;69.97;5.87;;;20.40;1.00;;;;;;5118053;28;20190;-78
2023/07/23 01:58:10;;;;;;;69.87;6.20;;;20.40;1.00;;;;;;5117399;28;20188;-78
2023/07/23 02:00:38;;;;;;;72.60;5.87;;;20.30;1.00;;;;;;5117362;28;20165;-78
2023/07/23 02:03:03;;;;;;;72.43;6.07;;;20.30;1.00;;;;;;5117745;28;20247;-78
2023/07/23 02:07:57;;;;;;;69.17;5.60;;;20.30;1.00;;;;;;5075960;28;20706;-86
2023/07/23 02:10:22;;;;;;;75.00;6.87;;;20.30;1.00;;;;;;5060488;28;20397;-87
2023/07/23 02:12:48;;;;;;;68.90;5.70;;;20.30;1.00;;;;;;5059904;28;20187;-87
2023/07/23 02:15:14;;;;;;;70.90;6.40;;;20.30;1.00;;;;;;5042084;28;20166;-86
2023/07/23 02:17:40;;;;;;;72.37;6.00;;;20.30;1.00;;;;;;5059410;28;20175;-87
2023/07/23 02:20:06;;;;;;;72.67;6.50;;;20.30;1.00;;;;;;5059800;28;20396;-87
2023/07/23 02:22:32;;;;;;;69.80;5.77;;;20.40;1.00;;;;;;5059561;28;20175;-86
2023/07/23 02:24:58;;;;;;;69.80;6.30;;;20.40;1.00;;;;;;5041978;28;20412;-87
2023/07/23 02:27:24;;;;;;;68.90;6.27;;;20.30;1.00;;;;;;5041383;28;20459;-87
2023/07/23 02:29:49;;;;;;;70.93;6.07;;;20.20;1.00;;;;;;5059203;28;20261;-87
2023/07/23 02:32:15;;;;;;;69.77;5.90;;;20.30;1.00;;;;;;5058804;28;20171;-86
2023/07/23 02:34:40;;;;;;;69.00;5.40;;;20.20;1.00;;;;;;5059678;28;20190;-87
2023/07/23 02:37:07;;;;;;;70.30;5.70;;;20.20;1.00;;;;;;5042008;28;20638;-86
2023/07/23 02:39:32;;;;;;;70.60;5.30;;;20.10;1.00;;;;;;5043812;28;20201;-87
2023/07/23 02:41:58;;;;;;;69.50;5.77;;;20.00;1.00;;;;;;5043313;28;20406;-86
2023/07/23 02:44:24;;;;;;;69.40;4.93;;;20.00;1.00;;;;;;5071597;28;20165;-87
2023/07/23 02:46:49;;;;;;;69.33;5.90;;;20.00;1.00;;;;;;5066899;28;20223;-86
2023/07/23 02:49:15;;;;;;;69.33;5.13;;;20.00;1.00;;;;;;5061772;28;20187;-86
2023/07/23 02:51:41;;;;;;;70.47;5.10;;;20.00;1.00;;;;;;5061423;28;20169;-87
2023/07/23 02:54:08;;;;;;;69.47;5.37;;;20.00;1.00;;;;;;5043002;28;20173;-87
2023/07/23 02:56:35;;;;;;;69.57;5.20;;;20.10;1.00;;;;;;5043059;28;20175;-86
2023/07/23 02:59:02;;;;;;;71.50;5.57;;;20.10;1.00;;;;;;5042949;28;20430;-87
2023/07/23 03:01:27;;;;;;;71.37;5.27;;;20.10;1.00;;;;;;5061698;28;20410;-87
2023/07/23 03:03:53;;;;;;;69.00;5.73;;;20.20;1.00;;;;;;5043183;28;20441;-86
2023/07/23 03:06:19;;;;;;;70.13;4.73;;;20.30;1.00;;;;;;5060929;28;20207;-87
2023/07/23 03:08:44;;;;;;;69.93;5.50;;;20.30;1.00;;;;;;5043166;28;20186;-87
2023/07/23 03:11:11;;;;;;;68.90;5.33;;;20.30;1.00;;;;;;5060937;28;20152;-87
2023/07/23 03:13:37;;;;;;;71.57;5.30;;;20.40;1.00;;;;;;5060538;28;20699;-86
2023/07/23 03:16:03;;;;;;;71.80;5.50;;;20.40;1.00;;;;;;5042859;28;20490;-87
2023/07/23 03:18:28;;;;;;;71.03;5.33;;;20.20;1.00;;;;;;5060491;28;20694;-87
2023/07/23 03:20:54;;;;;;;69.47;5.10;;;20.20;1.00;;;;;;5060775;28;20411;-87
2023/07/23 03:23:20;;;;;;;69.50;5.50;;;20.10;1.00;;;;;;5062070;28;20175;-87
2023/07/23 03:25:46;;;;;;;70.40;4.90;;;20.00;1.00;;;;;;5061771;28;20406;-87
2023/07/23 03:28:12;;;;;;;71.47;5.10;;;20.10;1.00;;;;;;5042993;28;20594;-86
2023/07/23 03:30:37;;;;;;;69.33;5.47;;;20.20;1.00;;;;;;5043372;28;20170;-87
2023/07/23 03:33:03;;;;;;;67.97;4.50;;;20.10;1.00;;;;;;5061152;28;20410;-87
2023/07/23 03:35:29;;;;;;;68.17;4.90;;;20.10;1.00;;;;;;5060092;28;20160;-87
2023/07/23 03:37:55;;;;;;;69.80;6.30;;;20.20;1.00;;;;;;5063157;28;20206;-86
2023/07/23 03:40:20;;;;;;;70.87;5.23;;;20.20;1.00;;;;;;5043363;28;20221;-86
2023/07/23 03:42:46;;;;;;;67.63;4.63;;;20.20;1.00;;;;;;5061342;28;20176;-87
2023/07/23 03:45:12;;;;;;;69.87;4.93;;;20.30;1.00;;;;;;5063755;28;20175;-87
2023/07/23 03:47:37;;;;;;;69.80;4.53;;;20.30;1.00;;;;;;5062714;28;20529;-86
2023/07/23 03:50:06;;;;;;;68.77;4.90;;;20.30;1.00;;;;;;5063736;28;20188;-87
2023/07/23 03:52:32;;;;;;;71.27;4.30;;;20.20;1.00;;;;;;5045298;28;20199;-87
2023/07/23 03:54:57;;;;;;;71.60;5.40;;;20.30;1.00;;;;;;5063853;28;20403;-87
2023/07/23 03:57:23;;;;;;;69.57;5.23;;;20.30;1.00;;;;;;5123790;22;20239;-87
2023/07/23 03:59:49;;;;;;;69.70;4.70;;;20.30;1.00;;;;;;5082904;28;20180;-87
2023/07/23 04:02:15;;;;;;;69.27;5.73;;;20.20;1.00;;;;;;5081289;28;20263;-87
2023/07/23 04:04:44;;;;;;;70.77;5.47;;;20.30;1.00;;;;;;5082438;28;20386;-87
2023/07/23 04:07:10;;;;;;;68.47;5.30;;;20.30;1.00;;;;;;5081666;28;20648;-87
2023/07/23 04:09:38;;;;;;;68.40;4.33;;;20.40;1.00;;;;;;5080481;28;20444;-87
2023/07/23 04:12:05;;;;;;;71.00;5.40;;;20.30;1.00;;;;;;5080084;28;20509;-87
2023/07/23 04:14:31;;;;;;;67.50;4.40;;;20.20;1.00;;;;;;5081511;28;20410;-86
2023/07/23 04:16:57;;;;;;;69.27;5.40;;;20.20;1.00;;;;;;5088396;28;20410;-86
2023/07/23 04:19:22;;;;;;;69.57;4.50;;;20.30;1.00;;;;;;5080911;28;20950;-87
2023/07/23 04:21:49;;;;;;;70.40;4.90;;;20.20;1.00;;;;;;5080802;28;20194;-86
2023/07/23 04:24:15;;;;;;;67.20;4.20;;;20.20;1.00;;;;;;5081649;28;20172;-87
2023/07/23 04:26:40;;;;;;;69.47;4.93;;;20.20;1.00;;;;;;5079928;28;20445;-86
2023/07/23 04:29:08;;;;;;;69.67;4.60;;;20.20;1.00;;;;;;5080425;28;20185;-87
2023/07/23 04:31:33;;;;;;;67.50;4.43;;;20.10;1.00;;;;;;5083013;28;20192;-87
2023/07/23 04:34:00;;;;;;;71.80;5.70;;;20.20;1.00;;;;;;5080201;28;20408;-87
2023/07/23 04:36:26;;;;;;;70.90;4.80;;;20.20;1.00;;;;;;5081599;28;20167;-87
2023/07/23 04:38:51;;;;;;;67.87;4.30;;;20.10;1.00;;;;;;5080458;28;20441;-87
2023/07/23 04:41:17;;;;;;;70.70;4.93;;;20.10;1.00;;;;;;5080681;28;20405;-86
2023/07/23 04:43:43;;;;;;;67.57;4.23;;;20.10;1.00;;;;;;5081055;28;20225;-87
2023/07/23 04:46:09;;;;;;;67.67;4.87;;;20.10;1.00;;;;;;5080210;28;20163;-87
2023/07/23 04:48:37;;;;;;;72.77;4.80;;;20.20;1.00;;;;;;5080180;28;20696;-87
2023/07/23 04:51:05;;;;;;;69.73;4.87;;;20.30;1.00;;;;;;5081030;28;20410;-86
2023/07/23 04:53:31;;;;;;;68.83;5.47;;;20.20;1.00;;;;;;5081981;28;20444;-86
2023/07/23 04:55:59;;;;;;;67.90;4.90;;;20.30;1.00;;;;;;5081004;28;20398;-86
2023/07/23 04:58:25;;;;;;;69.67;5.50;;;20.20;1.00;;;;;;5080154;28;20215;-86
2023/07/23 05:00:52;;;;;;;69.40;4.80;;;20.30;1.00;;;;;;5082347;28;20773;-86
2023/07/23 05:03:18;;;;;;;72.90;5.10;;;20.30;1.00;;;;;;5081075;28;20407;-86
2023/07/23 05:05:47;;;;;;;68.17;4.70;;;20.40;1.00;;;;;;5080144;28;20889;-86
2023/07/23 05:08:12;;;;;;;68.00;4.93;;;20.30;1.00;;;;;;5081916;28;20525;-87
2023/07/23 05:10:39;;;;;;;68.93;4.97;;;20.20;1.00;;;;;;5081465;28;20400;-86
2023/07/23 05:13:05;;;;;;;69.73;5.13;;;20.20;1.00;;;;;;5080471;28;20176;-87
2023/07/23 05:15:31;;;;;;;69.67;5.30;;;20.20;1.00;;;;;;5080276;28;20492;-87
2023/07/23 05:17:56;;;;;;;68.23;5.13;;;20.10;1.00;;;;;;5084730;28;20433;-86
2023/07/23 05:20:22;;;;;;;69.50;4.90;;;20.20;1.00;;;;;;5085214;28;20216;-86
2023/07/23 05:22:48;;;;;;;67.50;4.60;;;20.30;1.00;;;;;;5083304;28;20181;-87
2023/07/23 05:25:13;;;;;;;68.90;4.77;;;20.20;1.00;;;;;;5083798;28;20183;-87
2023/07/23 05:27:39;;;;;;;68.53;4.70;;;20.20;1.00;;;;;;5083395;28;20187;-86
2023/07/23 05:30:05;;;;;;;68.93;4.80;;;20.20;1.00;;;;;;5084718;28;20187;-86
2023/07/23 05:32:32;;;;;;;72.47;5.07;;;20.20;1.00;;;;;;5086845;28;20159;-86
2023/07/23 05:34:58;;;;;;;69.73;5.40;;;20.20;1.00;;;;;;5085645;28;20746;-86
2023/07/23 05:37:24;;;;;;;71.87;4.70;;;20.20;1.00;;;;;;5083976;28;20471;-87
2023/07/23 05:39:54;;;;;;;70.57;4.87;;;20.10;1.00;;;;;;5087554;28;20434;-87
2023/07/23 05:42:20;;;;;;;69.17;4.90;;;20.10;1.00;;;;;;5085909;28;20483;-87
2023/07/23 05:44:47;;;;;;;70.07;5.10;;;20.20;1.00;;;;;;5085314;28;20869;-86
2023/07/23 05:47:13;;;;;;;69.27;4.70;;;20.30;1.00;;;;;;5087803;28;20445;-86
2023/07/23 05:49:38;;;;;;;67.63;4.20;;;20.40;1.00;;;;;;5087409;28;20434;-86
2023/07/23 05:52:05;;;;;;;70.10;4.90;;;20.50;1.00;;;;;;5085005;28;20221;-87
2023/07/23 05:54:31;;;;;;;67.97;5.57;;;20.40;1.00;;;;;;5085304;28;20164;-86
2023/07/23 05:56:57;;;;;;;68.10;4.20;;;20.60;1.00;;;;;;5084209;28;20421;-86
2023/07/23 05:59:23;;;;;;;68.20;4.60;;;20.70;1.00;;;;;;5084119;28;20218;-87
2023/07/23 06:01:49;;;;;;;69.67;4.50;;;20.70;1.00;;;;;;5085325;28;20413;-87
2023/07/23 06:04:15;;;;;;;68.60;4.60;;;20.80;1.00;;;;;;5086446;28;20660;-87
2023/07/23 06:06:40;;;;;;;69.37;4.80;;;20.80;1.00;;;;;;5086262;28;20434;-87
2023/07/23 06:09:06;;;;;;;67.60;4.30;;;20.80;1.00;;;;;;5085271;28;20302;-89
2023/07/23 06:11:32;;;;;;;69.10;5.27;;;20.90;1.00;;;;;;5085177;28;20235;-87
2023/07/23 06:14:00;;;;;;;70.93;5.00;;;20.90;1.00;;;;;;5086346;28;20223;-86
2023/07/23 06:16:26;;;;;;;71.30;4.53;;;21.00;1.00;;;;;;5083782;28;20156;-87
2023/07/23 06:18:52;;;;;;;69.17;4.63;;;21.10;1.00;;;;;;5084450;28;20832;-87
2023/07/23 06:21:17;;;;;;;70.30;4.80;;;20.90;1.00;;;;;;5084438;28;20173;-86
2023/07/23 06:23:46;;;;;;;67.97;4.30;;;21.00;1.00;;;;;;5085323;28;20160;-87
2023/07/23 06:26:14;;;;;;;68.50;4.40;;;21.10;1.00;;;;;;5085421;28;20227;-86
2023/07/23 06:28:40;;;;;;;68.00;4.23;;;21.20;1.00;;;;;;5085117;28;20454;-87
2023/07/23 06:31:06;;;;;;;68.60;4.70;;;21.10;1.00;;;;;;5086128;28;20414;-86
2023/07/23 06:33:31;;;;;;;66.90;3.67;;;21.00;1.00;;;;;;5085569;28;20213;-86
2023/07/23 06:35:57;;;;;;;68.10;3.90;;;21.00;1.00;;;;;;5084940;28;20168;-87
2023/07/23 06:38:23;;;;;;;70.10;4.47;;;20.90;1.00;;;;;;5086701;28;20229;-85
2023/07/23 06:40:51;;;;;;;67.00;3.90;;;20.90;1.00;;;;;;5087071;28;20170;-85
2023/07/23 06:43:19;;;;;;;68.67;4.00;;;20.90;1.00;;;;;;5087118;28;20182;-86
2023/07/23 06:45:46;;;;;;;67.73;4.07;;;21.00;1.00;;;;;;5084438;28;20455;-87
2023/07/23 06:48:12;;;;;;;67.03;3.50;;;21.00;1.00;;;;;;5075901;28;20812;-87
2023/07/23 06:50:39;;;;;;;67.60;4.23;;;21.00;1.00;;;;;;5075946;28;20496;-87
2023/07/23 06:53:06;;;;;;;69.27;4.63;;;21.10;1.00;;;;;;5076728;28;20445;-87
2023/07/23 06:55:35;;;;;;;68.83;3.50;;;21.10;1.00;;;;;;5074452;28;20422;-87
2023/07/23 06:58:04;;;;;;;71.53;4.10;;;21.00;1.00;;;;;;5076395;28;20211;-88
2023/07/23 07:00:29;;;;;;;67.90;3.90;;;21.00;1.00;;;;;;5075314;28;20472;-87
2023/07/23 07:02:55;;;;;;;68.60;4.20;;;20.90;1.00;;;;;;5076362;28;20410;-87
2023/07/23 07:05:21;;;;;;;67.30;3.60;;;20.90;1.00;;;;;;5077700;28;20222;-87
2023/07/23 07:07:46;;;;;;;67.57;3.60;;;20.90;1.00;;;;;;5074524;28;20716;-87
2023/07/23 07:10:12;;;;;;;70.07;4.17;;;20.80;1.00;;;;;;5075817;28;20168;-87
2023/07/23 07:12:38;;;;;;;66.37;3.93;;;20.70;1.00;;;;;;5075137;28;20222;-87
2023/07/23 07:15:04;;;;;;;68.20;4.43;;;20.60;1.00;;;;;;5077401;28;20535;-87
2023/07/23 07:17:29;;;;;;;66.83;4.80;;;20.40;1.00;;;;;;5077228;28;20231;-87
2023/07/23 07:20:04;;;;;;;67.10;4.67;;;20.50;1.00;;;;;;5079965;28;20841;-87
2023/07/23 07:22:30;;;;;;;68.30;5.30;;;20.40;1.00;;;;;;5073712;28;20159;-87
2023/07/23 07:25:05;;;;;;;67.70;4.70;;;20.50;1.00;;;;;;5074750;28;20558;-87
2023/07/23 07:27:30;;;;;;;67.90;4.70;;;20.40;1.00;;;;;;5074656;28;20210;-87
2023/07/23 07:29:56;;;;;;;66.27;3.43;;;20.30;1.00;;;;;;5073597;28;20434;-87
2023/07/23 07:32:22;;;;;;;67.20;4.33;;;20.40;1.00;;;;;;5074939;28;20190;-87
2023/07/23 07:34:47;;;;;;;68.53;5.27;;;20.50;1.00;;;;;;5074593;28;20271;-87
2023/07/23 07:37:22;;;;;;;68.30;4.43;;;20.50;1.00;;;;;;5076336;28;20164;-87
2023/07/23 07:39:48;;;;;;;69.70;4.87;;;20.40;1.00;;;;;;5073819;28;20179;-87
2023/07/23 07:42:13;;;;;;;67.53;4.87;;;20.40;1.00;;;;;;5074300;28;20402;-87
2023/07/23 07:44:39;;;;;;;68.20;4.50;;;20.40;1.00;;;;;;5073327;28;20219;-87
2023/07/23 07:47:05;;;;;;;66.50;3.90;;;20.40;1.00;;;;;;5074517;28;20589;-87
2023/07/23 07:49:31;;;;;;;67.87;3.73;;;20.50;1.00;;;;;;5074032;28;20245;-88
2023/07/23 07:51:57;;;;;;;68.70;4.73;;;20.60;1.00;;;;;;5074175;28;20432;-88
2023/07/23 07:54:23;;;;;;;67.77;4.20;;;20.40;1.00;;;;;;5073795;28;20907;-88
2023/07/23 07:56:49;;;;;;;67.00;4.40;;;20.40;1.00;;;;;;5073879;28;20160;-88
2023/07/23 07:59:15;;;;;;;68.00;4.50;;;20.40;4.60;;;;;;5073808;28;20196;-88
2023/07/23 08:01:41;;;;;;;70.87;5.20;;;20.30;9.10;;;;;;5073748;28;20548;-89
2023/07/23 08:04:09;;;;;;;67.73;5.07;;;20.20;13.30;;;;;;5074752;28;20416;-88
2023/07/23 08:06:37;;;;;;;67.03;4.53;;;20.30;7.50;;;;;;5073405;28;20421;-88
2023/07/23 08:09:03;;;;;;;68.13;5.30;;;20.40;12.40;;;;;;5074061;28;20419;-88
2023/07/23 08:11:30;;;;;;;67.57;6.07;;;20.30;17.00;;;;;;5072216;28;20392;-88
2023/07/23 08:13:57;;;;;;;67.87;5.57;;;20.40;15.60;;;;;;5073088;28;20412;-90
2023/07/23 08:16:23;;;;;;;68.60;6.37;;;20.40;25.30;;;;;;5073878;28;20399;-90
2023/07/23 08:18:49;;;;;;;67.33;5.10;;;20.30;27.30;;;;;;5072141;28;20504;-88
2023/07/23 08:21:14;;;;;;;68.00;5.30;;;20.30;23.30;;;;;;5073472;28;20498;-89
2023/07/23 08:23:41;;;;;;;69.47;6.73;;;20.30;20.20;;;;;;5072087;28;20758;-89
2023/07/23 08:26:07;;;;;;;68.33;5.60;;;20.30;25.00;;;;;;5073776;28;20379;-88
2023/07/23 08:28:44;;;;;;;69.30;5.70;;;20.10;26.80;;;;;;5071884;28;20817;-88
2023/07/23 08:31:10;;;;;;;69.17;9.63;;;20.20;21.50;;;;;;5077499;28;20403;-86
2023/07/23 08:33:39;;;;;;;73.57;20.03;;;20.20;29.10;;;;;;5079588;28;20394;-86
2023/07/23 08:36:05;;;;;;;75.27;28.83;;;20.10;45.40;;;;;;5079766;28;20406;-86
2023/07/23 08:38:31;;;;;;;68.67;12.77;;;20.20;32.90;;;;;;5078681;28;20452;-85
2023/07/23 08:41:00;;;;;;;69.87;14.10;;;20.10;34.80;;;;;;5078828;28;20402;-85
2023/07/23 08:43:59;;;;;;;72.70;14.27;;;20.00;40.10;;;;;;5077890;28;20394;-86
2023/07/23 08:46:27;;;;;;;68.83;12.10;;;20.10;33.60;;;;;;5077612;28;20418;-86
2023/07/23 08:48:56;;;;;;;75.60;22.43;;;19.90;45.30;;;;;;5077892;28;20933;-86
2023/07/23 08:51:26;;;;;;;75.13;26.13;;;19.90;50.10;;;;;;5079898;28;20933;-86
2023/07/23 08:53:53;;;;;;;78.90;35.13;;;19.90;50.50;;;;;;5081163;28;20413;-86
2023/07/23 08:56:19;;;;;;;77.80;37.10;;;19.90;49.10;;;;;;5080823;28;20402;-86
2023/07/23 08:58:45;;;;;;;77.27;34.80;;;20.00;55.20;;;;;;5080321;28;20446;-86
2023/07/23 09:01:16;;;;;;;83.80;36.90;;;20.00;60.80;;;;;;5080975;28;20162;-86
2023/07/23 09:03:42;;;;;;;77.73;31.73;;;20.00;61.00;;;;;;5080695;28;20406;-86
2023/07/23 09:06:10;;;;;;;75.00;28.33;;;20.00;68.00;;;;;;5078886;28;20411;-86
2023/07/23 09:08:36;;;;;;;78.97;30.37;;;20.00;65.10;;;;;;5079298;28;20475;-86
2023/07/23 09:11:04;;;;;;;75.83;28.53;;;20.00;74.90;;;;;;5079557;28;20427;-87
2023/07/23 09:13:34;;;;;;;74.40;27.33;;;20.10;69.20;;;;;;5079319;28;20395;-86
2023/07/23 09:16:00;;;;;;;74.20;26.47;;;20.20;69.60;;;;;;5079473;28;20408;-86
2023/07/23 09:18:26;;;;;;;73.40;24.70;;;20.30;77.80;;;;;;5078524;28;20426;-86
2023/07/23 09:20:52;;;;;;;74.07;25.93;;;20.40;71.60;;;;;;5078703;28;20425;-87
2023/07/23 09:23:18;;;;;;;73.07;22.37;;;20.40;79.30;;;;;;5078763;28;20178;-87
2023/07/23 09:25:44;;;;;;;75.40;26.13;;;20.70;80.00;;;;;;5079230;28;20176;-86
2023/07/23 09:28:23;;;;;;;78.70;30.93;;;20.80;68.70;;;;;;5079782;28;20548;-86
2023/07/23 09:30:52;;;;;;;76.47;28.77;;;20.90;67.30;;;;;;5080988;28;20475;-86
2023/07/23 09:33:18;;;;;;;72.50;22.07;;;20.90;53.80;;;;;;5080268;28;20496;-86
2023/07/23 09:35:43;;;;;;;70.47;15.77;;;21.00;50.20;;;;;;5080677;28;20491;-86
2023/07/23 09:38:14;;;;;;;73.67;23.67;;;21.00;46.90;;;;;;5080370;28;20214;-86
2023/07/23 09:40:41;;;;;;;75.30;29.77;;;21.00;46.20;;;;;;5081784;28;20158;-86
2023/07/23 09:43:08;;;;;;;73.17;24.30;;;21.00;55.20;;;;;;5082082;28;20813;-86
2023/07/23 09:45:38;;;;;;;73.47;26.40;;;20.90;48.40;;;;;;5080320;28;20482;-86
2023/07/23 09:48:05;;;;;;;79.40;29.30;;;20.80;57.10;;;;;;5080082;28;20457;-87
2023/07/23 09:50:30;;;;;;;74.83;29.93;;;20.90;58.60;;;;;;5080558;28;20485;-87
2023/07/23 09:52:57;;;;;;;76.50;31.60;;;20.90;54.80;;;;;;5081511;28;20416;-86
2023/07/23 09:55:23;;;;;;;79.90;32.00;;;20.80;59.40;;;;;;5081598;28;20157;-86
2023/07/23 09:57:51;;;;;;;74.10;28.03;;;20.80;61.90;;;;;;5079489;28;20498;-86
2023/07/23 10:00:17;;;;;;;73.50;25.90;;;20.50;67.80;;;;;;5078097;28;20453;-86
2023/07/23 10:02:46;;;;;;;78.30;24.13;;;20.30;72.10;;;;;;5078786;28;20406;-85
2023/07/23 10:05:15;;;;;;;72.57;19.13;;;20.10;83.50;;;;;;5078958;28;20399;-86
2023/07/23 10:07:41;;;;;;;71.50;20.67;;;20.00;92.00;;;;;;5079941;28;20976;-84
2023/07/23 10:10:08;;;;;;;71.10;19.47;;;20.00;92.00;;;;;;5078841;28;20758;-85
2023/07/23 10:12:34;;;;;;;72.47;20.23;;;19.90;94.80;;;;;;5077901;28;20424;-86
2023/07/23 10:15:00;;;;;;;71.77;20.33;;;20.00;96.50;;;;;;5078408;28;20411;-86
2023/07/23 10:17:28;;;;;;;71.97;21.97;;;19.90;98.70;;;;;;5080307;28;20402;-86
2023/07/23 10:19:56;;;;;;;73.70;20.33;;;20.00;97.50;;;;;;5081451;28;20559;-87
2023/07/23 10:22:31;;;;;;;76.57;18.70;;;20.10;98.70;;;;;;5082284;28;20944;-87
2023/07/23 10:24:56;;;;;;;71.17;15.90;;;20.10;99.90;;;;;;5080409;28;20442;-87
2023/07/23 10:27:23;;;;;;;69.73;14.50;;;20.40;98.50;;;;;;5081006;28;20952;-86
2023/07/23 10:30:15;;;;;;;72.27;17.00;;;20.40;98.70;;;;;;5080048;28;20188;-87
2023/07/23 10:32:40;;;;;;;71.03;13.70;;;20.50;95.00;;;;;;5076718;28;20430;-87
2023/07/23 10:35:06;;;;;;;70.87;15.10;;;20.50;93.30;;;;;;5079303;28;20397;-86
2023/07/23 10:37:32;;;;;;;68.60;14.13;;;20.50;90.80;;;;;;5077490;28;20773;-87
2023/07/23 10:40:00;;;;;;;71.80;16.17;;;20.40;92.30;;;;;;5079628;28;20309;-87
2023/07/23 10:42:33;;;;;;;69.90;14.70;;;20.40;95.60;;;;;;5078877;28;20292;-86
2023/07/23 10:45:23;;;;;;;68.67;13.77;;;20.40;95.60;;;;;;5077103;28;20804;-87
2023/07/23 10:47:55;;;;;;;71.97;13.40;;;20.40;93.70;;;;;;5076790;28;20430;-86
2023/07/23 10:50:22;;;;;;;70.83;17.20;;;20.60;89.60;;;;;;5076579;28;20877;-86
2023/07/23 10:52:58;;;;;;;72.37;17.73;;;20.80;89.00;;;;;;5076067;28;20443;-87
2023/07/23 10:55:47;;;;;;;72.17;18.30;;;20.70;77.10;;;;;;5074966;28;20414;-86
2023/07/23 10:58:20;;;;;;;74.00;22.97;;;20.50;83.30;;;;;;5077309;28;20522;-86
2023/07/23 11:00:57;;;;;;;73.00;23.70;;;20.60;75.40;;;;;;5077763;28;20382;-86
2023/07/23 11:03:24;;;;;;;73.27;26.17;;;20.60;73.00;;;;;;5077092;28;20476;-86
2023/07/23 11:05:50;;;;;;;74.73;27.43;;;20.60;70.60;;;;;;5076539;28;20949;-86
2023/07/23 11:08:24;;;;;;;73.63;28.43;;;20.60;65.70;;;;;;5075379;28;21022;-86
2023/07/23 11:11:00;;;;;;;73.73;24.93;;;20.60;60.00;;;;;;5076663;28;20398;-87
2023/07/23 11:13:27;;;;;;;74.40;29.27;;;20.70;61.20;;;;;;5076308;28;20450;-86
2023/07/23 11:15:54;;;;;;;75.70;30.17;;;20.70;56.40;;;;;;5079233;28;20400;-86
2023/07/23 11:18:20;;;;;;;76.93;31.90;;;20.60;58.60;;;;;;5080791;28;20943;-87
2023/07/23 11:20:47;;;;;;;75.17;30.10;;;20.70;63.20;;;;;;5078207;28;20460;-87
2023/07/23 11:23:13;;;;;;;73.30;27.43;;;20.90;68.40;;;;;;5079752;28;20659;-87
2023/07/23 11:25:42;;;;;;;76.90;35.43;;;20.90;55.70;;;;;;5079921;28;20903;-87
2023/07/23 11:28:08;;;;;;;75.77;26.80;;;20.90;57.40;;;;;;5079516;28;21029;-87
2023/07/23 11:30:34;;;;;;;76.80;28.97;;;20.70;54.50;;;;;;5078248;28;20465;-87
2023/07/23 11:33:02;;;;;;;78.80;36.23;;;20.90;50.20;;;;;;5078856;28;20391;-86
2023/07/23 11:35:28;;;;;;;78.30;36.43;;;20.90;51.70;;;;;;5078502;28;20487;-86
2023/07/23 11:37:54;;;;;;;79.90;39.60;;;21.00;47.60;;;;;;5079281;28;20418;-86
2023/07/23 11:40:22;;;;;;;84.60;51.77;;;21.10;49.10;;;;;;5078394;28;20389;-87
2023/07/23 11:42:47;;;;;;;81.33;41.00;;;21.10;52.90;;;;;;5077632;28;20418;-86
2023/07/23 11:45:13;;;;;;;81.70;40.77;;;21.10;42.20;;;;;;5078356;28;20486;-87
2023/07/23 11:47:54;;;;;;;81.93;41.13;;;21.00;43.00;;;;;;5079183;28;20253;-87
2023/07/23 11:50:22;;;;;;;77.97;34.33;;;21.10;42.40;;;;;;5078801;28;20193;-86
2023/07/23 11:52:50;;;;;;;77.87;33.53;;;21.10;40.70;;;;;;5085441;28;20430;-86
2023/07/23 11:55:26;;;;;;;75.37;27.37;;;21.20;37.20;;;;;;5081854;28;20398;-86
2023/07/23 11:57:57;;;;;;;74.27;24.37;;;21.30;35.30;;;;;;5078205;28;20422;-86
2023/07/23 12:00:26;;;;;;;77.83;29.70;;;21.40;34.70;;;;;;5078833;28;20421;-86
2023/07/23 12:02:52;;;;;;;77.07;29.37;;;21.30;32.70;;;;;;5079943;28;20786;-86
2023/07/23 12:05:18;;;;;;;75.00;21.20;;;21.40;31.90;;;;;;5077825;28;20493;-87
2023/07/23 12:07:44;;;;;;;73.40;20.77;;;21.30;29.80;;;;;;5079458;28;20525;-87
2023/07/23 12:10:15;;;;;;;76.60;24.53;;;21.40;33.30;;;;;;5079655;28;20394;-87
2023/07/23 12:12:54;;;;;;;73.97;23.27;;;21.40;29.80;;;;;;5080185;28;20379;-86
2023/07/23 12:15:19;;;;;;;76.13;27.43;;;21.40;34.80;;;;;;5078747;28;20824;-87
2023/07/23 12:17:45;;;;;;;78.03;33.77;;;21.40;29.00;;;;;;5078471;28;20403;-87
2023/07/23 12:20:24;;;;;;;74.00;19.47;;;21.60;28.10;;;;;;5080097;28;20176;-87
2023/07/23 12:22:54;;;;;;;74.40;22.77;;;21.80;24.10;;;;;;5082031;28;20477;-87
2023/07/23 12:25:21;;;;;;;70.50;11.23;;;21.80;22.90;;;;;;5081451;28;20401;-86
2023/07/23 12:27:47;;;;;;;70.70;11.80;;;21.80;15.10;;;;;;5080895;28;20503;-87
2023/07/23 12:30:17;;;;;;;70.60;12.20;;;21.80;20.50;;;;;;5082042;28;20421;-88
2023/07/23 12:32:46;;;;;;;70.03;10.57;;;21.90;20.20;;;;;;5080222;28;20398;-86
2023/07/23 12:35:21;;;;;;;69.97;10.87;;;21.90;17.40;;;;;;5082617;28;20410;-87
2023/07/23 12:37:46;;;;;;;69.37;7.77;;;22.00;15.40;;;;;;5081975;28;20391;-87
2023/07/23 12:40:35;;;;;;;75.53;7.77;;;22.00;15.90;;;;;;5079980;28;20402;-87
2023/07/23 12:43:01;;;;;;;68.27;7.40;;;22.10;12.10;;;;;;5074023;28;20259;-87